sensor_id;sensor_type;location;lat;lon;timestamp;P1;durP1;ratioP1;P2;durP2;ratioP2
3683;SDS011;1858;48.716;9.648;2023-03-04T00:02:03;23.10;;;11.77;;
3683;SDS011;1858;48.716;9.648;2023-03-04T00:04:31;25.10;;;11.60;;
3683;SDS011;1858;48.716;9.648;2023-03-04T00:07:00;26.07;;;9.93;;
3683;SDS011;1858;48.716;9.648;2023-03-04T00:09:29;33.07;;;11.30;;
3683;SDS011;1858;48.716;9.648;2023-03-04T00:12:05;21.37;;;10.27;;
3683;SDS011;1858;48.716;9.648;2023-03-04T00:14:58;20.63;;;8.47;;
3683;SDS011;1858;48.716;9.648;2023-03-04T00:17:27;19.27;;;10.67;;
3683;SDS011;1858;48.716;9.648;2023-03-04T00:19:59;24.70;;;11.10;;
3683;SDS011;1858;48.716;9.648;2023-03-04T00:22:29;15.30;;;10.87;;
3683;SDS011;1858;48.716;9.648;2023-03-04T00:24:58;13.60;;;7.60;;
3683;SDS011;1858;48.716;9.648;2023-03-04T00:27:27;25.53;;;11.00;;
3683;SDS011;1858;48.716;9.648;2023-03-04T00:29:57;19.27;;;12.33;;
3683;SDS011;1858;48.716;9.648;2023-03-04T00:32:25;22.47;;;9.40;;
3683;SDS011;1858;48.716;9.648;2023-03-04T00:34:53;25.50;;;12.40;;
3683;SDS011;1858;48.716;9.648;2023-03-04T00:37:22;23.03;;;11.57;;
3683;SDS011;1858;48.716;9.648;2023-03-04T00:39:51;18.73;;;10.50;;
3683;SDS011;1858;48.716;9.648;2023-03-04T00:42:19;23.10;;;13.67;;
3683;SDS011;1858;48.716;9.648;2023-03-04T00:44:48;21.60;;;12.57;;
3683;SDS011;1858;48.716;9.648;2023-03-04T00:47:17;23.00;;;12.73;;
3683;SDS011;1858;48.716;9.648;2023-03-04T00:49:46;20.80;;;11.43;;
3683;SDS011;1858;48.716;9.648;2023-03-04T00:52:15;27.37;;;10.70;;
3683;SDS011;1858;48.716;9.648;2023-03-04T00:54:43;19.60;;;11.83;;
3683;SDS011;1858;48.716;9.648;2023-03-04T00:57:12;28.20;;;13.97;;
3683;SDS011;1858;48.716;9.648;2023-03-04T00:59:40;13.57;;;8.33;;
3683;SDS011;1858;48.716;9.648;2023-03-04T01:02:09;16.03;;;8.40;;
3683;SDS011;1858;48.716;9.648;2023-03-04T01:04:38;29.13;;;11.57;;
3683;SDS011;1858;48.716;9.648;2023-03-04T01:07:07;21.97;;;10.30;;
3683;SDS011;1858;48.716;9.648;2023-03-04T01:09:36;20.90;;;7.87;;
3683;SDS011;1858;48.716;9.648;2023-03-04T01:12:04;19.53;;;10.30;;
3683;SDS011;1858;48.716;9.648;2023-03-04T01:14:34;22.37;;;12.53;;
3683;SDS011;1858;48.716;9.648;2023-03-04T01:17:02;27.80;;;14.80;;
3683;SDS011;1858;48.716;9.648;2023-03-04T01:19:31;13.23;;;8.60;;
3683;SDS011;1858;48.716;9.648;2023-03-04T01:21:59;17.10;;;10.27;;
3683;SDS011;1858;48.716;9.648;2023-03-04T01:24:28;18.50;;;9.37;;
3683;SDS011;1858;48.716;9.648;2023-03-04T01:26:59;19.43;;;9.83;;
3683;SDS011;1858;48.716;9.648;2023-03-04T01:29:28;16.20;;;11.00;;
3683;SDS011;1858;48.716;9.648;2023-03-04T01:31:57;21.17;;;10.03;;
3683;SDS011;1858;48.716;9.648;2023-03-04T01:34:26;28.97;;;10.23;;
3683;SDS011;1858;48.716;9.648;2023-03-04T01:36:54;17.60;;;10.47;;
3683;SDS011;1858;48.716;9.648;2023-03-04T01:39:23;21.27;;;9.90;;
3683;SDS011;1858;48.716;9.648;2023-03-04T01:41:51;24.10;;;12.43;;
3683;SDS011;1858;48.716;9.648;2023-03-04T01:44:20;21.50;;;10.27;;
3683;SDS011;1858;48.716;9.648;2023-03-04T01:46:50;16.67;;;7.53;;
3683;SDS011;1858;48.716;9.648;2023-03-04T01:49:20;19.93;;;10.30;;
3683;SDS011;1858;48.716;9.648;2023-03-04T01:51:53;16.70;;;9.50;;
3683;SDS011;1858;48.716;9.648;2023-03-04T01:54:22;13.03;;;9.17;;
3683;SDS011;1858;48.716;9.648;2023-03-04T01:56:50;16.27;;;9.00;;
3683;SDS011;1858;48.716;9.648;2023-03-04T01:59:29;21.10;;;12.70;;
3683;SDS011;1858;48.716;9.648;2023-03-04T02:01:54;20.10;;;10.97;;
3683;SDS011;1858;48.716;9.648;2023-03-04T02:04:28;20.27;;;11.70;;
3683;SDS011;1858;48.716;9.648;2023-03-04T02:07:00;20.00;;;9.20;;
3683;SDS011;1858;48.716;9.648;2023-03-04T02:09:30;19.70;;;10.67;;
3683;SDS011;1858;48.716;9.648;2023-03-04T02:11:59;28.60;;;12.83;;
3683;SDS011;1858;48.716;9.648;2023-03-04T02:14:28;26.03;;;11.30;;
3683;SDS011;1858;48.716;9.648;2023-03-04T02:16:57;18.73;;;10.10;;
3683;SDS011;1858;48.716;9.648;2023-03-04T02:22:15;12.70;;;7.00;;
3683;SDS011;1858;48.716;9.648;2023-03-04T02:24:52;27.70;;;11.80;;
3683;SDS011;1858;48.716;9.648;2023-03-04T02:27:37;23.57;;;12.93;;
3683;SDS011;1858;48.716;9.648;2023-03-04T02:30:06;19.70;;;10.47;;
3683;SDS011;1858;48.716;9.648;2023-03-04T02:32:36;21.10;;;11.43;;
3683;SDS011;1858;48.716;9.648;2023-03-04T02:35:05;18.23;;;10.60;;
3683;SDS011;1858;48.716;9.648;2023-03-04T02:37:36;23.30;;;10.50;;
3683;SDS011;1858;48.716;9.648;2023-03-04T02:40:05;27.03;;;8.57;;
3683;SDS011;1858;48.716;9.648;2023-03-04T02:42:36;16.33;;;8.60;;
3683;SDS011;1858;48.716;9.648;2023-03-04T02:45:05;21.73;;;12.67;;
3683;SDS011;1858;48.716;9.648;2023-03-04T02:47:35;19.77;;;10.80;;
3683;SDS011;1858;48.716;9.648;2023-03-04T02:50:04;23.13;;;10.53;;
3683;SDS011;1858;48.716;9.648;2023-03-04T02:52:33;14.10;;;9.27;;
3683;SDS011;1858;48.716;9.648;2023-03-04T02:55:01;21.67;;;13.70;;
3683;SDS011;1858;48.716;9.648;2023-03-04T02:57:30;19.87;;;12.60;;
3683;SDS011;1858;48.716;9.648;2023-03-04T02:59:58;18.00;;;11.73;;
3683;SDS011;1858;48.716;9.648;2023-03-04T03:02:27;30.83;;;13.40;;
3683;SDS011;1858;48.716;9.648;2023-03-04T03:04:55;25.67;;;9.93;;
3683;SDS011;1858;48.716;9.648;2023-03-04T03:07:24;20.43;;;11.87;;
3683;SDS011;1858;48.716;9.648;2023-03-04T03:09:52;23.53;;;12.03;;
3683;SDS011;1858;48.716;9.648;2023-03-04T03:12:21;22.40;;;9.70;;
3683;SDS011;1858;48.716;9.648;2023-03-04T03:14:49;15.20;;;9.40;;
3683;SDS011;1858;48.716;9.648;2023-03-04T03:17:18;21.70;;;13.43;;
3683;SDS011;1858;48.716;9.648;2023-03-04T03:19:46;27.20;;;13.93;;
3683;SDS011;1858;48.716;9.648;2023-03-04T03:22:15;15.00;;;8.40;;
3683;SDS011;1858;48.716;9.648;2023-03-04T03:24:43;30.77;;;11.77;;
3683;SDS011;1858;48.716;9.648;2023-03-04T03:27:12;18.83;;;12.37;;
3683;SDS011;1858;48.716;9.648;2023-03-04T03:29:41;21.57;;;10.50;;
3683;SDS011;1858;48.716;9.648;2023-03-04T03:32:09;20.13;;;9.87;;
3683;SDS011;1858;48.716;9.648;2023-03-04T03:34:38;18.73;;;11.40;;
3683;SDS011;1858;48.716;9.648;2023-03-04T03:37:07;19.23;;;11.43;;
3683;SDS011;1858;48.716;9.648;2023-03-04T03:39:35;20.33;;;10.90;;
3683;SDS011;1858;48.716;9.648;2023-03-04T03:42:04;20.33;;;10.50;;
3683;SDS011;1858;48.716;9.648;2023-03-04T03:44:33;24.00;;;13.77;;
3683;SDS011;1858;48.716;9.648;2023-03-04T03:47:01;23.57;;;10.33;;
3683;SDS011;1858;48.716;9.648;2023-03-04T03:49:30;15.93;;;10.43;;
3683;SDS011;1858;48.716;9.648;2023-03-04T03:51:58;30.10;;;12.70;;
3683;SDS011;1858;48.716;9.648;2023-03-04T03:54:27;25.50;;;13.77;;
3683;SDS011;1858;48.716;9.648;2023-03-04T03:56:55;17.20;;;8.20;;
3683;SDS011;1858;48.716;9.648;2023-03-04T03:59:24;21.67;;;11.63;;
3683;SDS011;1858;48.716;9.648;2023-03-04T04:01:52;26.50;;;10.77;;
3683;SDS011;1858;48.716;9.648;2023-03-04T04:04:21;15.13;;;8.93;;
3683;SDS011;1858;48.716;9.648;2023-03-04T04:06:49;18.30;;;10.47;;
3683;SDS011;1858;48.716;9.648;2023-03-04T04:09:18;18.97;;;10.60;;
3683;SDS011;1858;48.716;9.648;2023-03-04T04:11:46;15.43;;;10.87;;
3683;SDS011;1858;48.716;9.648;2023-03-04T04:14:15;17.53;;;11.07;;
3683;SDS011;1858;48.716;9.648;2023-03-04T04:16:43;26.13;;;10.73;;
3683;SDS011;1858;48.716;9.648;2023-03-04T04:19:15;23.37;;;12.67;;
3683;SDS011;1858;48.716;9.648;2023-03-04T04:21:45;13.23;;;9.63;;
3683;SDS011;1858;48.716;9.648;2023-03-04T04:24:21;23.03;;;12.10;;
3683;SDS011;1858;48.716;9.648;2023-03-04T04:26:49;14.40;;;8.00;;
3683;SDS011;1858;48.716;9.648;2023-03-04T04:29:19;16.37;;;10.90;;
3683;SDS011;1858;48.716;9.648;2023-03-04T04:31:48;20.10;;;10.47;;
3683;SDS011;1858;48.716;9.648;2023-03-04T04:34:17;13.90;;;9.70;;
3683;SDS011;1858;48.716;9.648;2023-03-04T04:36:45;19.00;;;9.47;;
3683;SDS011;1858;48.716;9.648;2023-03-04T04:39:15;20.80;;;9.60;;
3683;SDS011;1858;48.716;9.648;2023-03-04T04:41:43;21.77;;;11.80;;
3683;SDS011;1858;48.716;9.648;2023-03-04T04:44:12;31.00;;;11.53;;
3683;SDS011;1858;48.716;9.648;2023-03-04T04:46:41;25.53;;;12.73;;
3683;SDS011;1858;48.716;9.648;2023-03-04T04:49:10;33.17;;;15.27;;
3683;SDS011;1858;48.716;9.648;2023-03-04T04:51:44;21.27;;;11.20;;
3683;SDS011;1858;48.716;9.648;2023-03-04T04:54:14;19.60;;;10.90;;
3683;SDS011;1858;48.716;9.648;2023-03-04T04:56:43;16.20;;;11.07;;
3683;SDS011;1858;48.716;9.648;2023-03-04T04:59:11;26.27;;;10.63;;
3683;SDS011;1858;48.716;9.648;2023-03-04T05:01:40;18.70;;;13.10;;
3683;SDS011;1858;48.716;9.648;2023-03-04T05:04:08;15.93;;;10.37;;
3683;SDS011;1858;48.716;9.648;2023-03-04T05:06:37;21.80;;;11.97;;
3683;SDS011;1858;48.716;9.648;2023-03-04T05:09:05;26.33;;;11.40;;
3683;SDS011;1858;48.716;9.648;2023-03-04T05:11:34;18.57;;;9.20;;
3683;SDS011;1858;48.716;9.648;2023-03-04T05:14:04;17.13;;;9.47;;
3683;SDS011;1858;48.716;9.648;2023-03-04T05:16:33;18.40;;;10.23;;
3683;SDS011;1858;48.716;9.648;2023-03-04T05:19:01;31.53;;;14.00;;
3683;SDS011;1858;48.716;9.648;2023-03-04T05:21:30;25.30;;;11.17;;
3683;SDS011;1858;48.716;9.648;2023-03-04T05:23:58;26.43;;;10.17;;
3683;SDS011;1858;48.716;9.648;2023-03-04T05:26:27;15.97;;;9.77;;
3683;SDS011;1858;48.716;9.648;2023-03-04T05:28:55;20.23;;;12.47;;
3683;SDS011;1858;48.716;9.648;2023-03-04T05:31:24;31.07;;;12.70;;
3683;SDS011;1858;48.716;9.648;2023-03-04T05:33:53;15.07;;;10.23;;
3683;SDS011;1858;48.716;9.648;2023-03-04T05:36:21;15.20;;;10.30;;
3683;SDS011;1858;48.716;9.648;2023-03-04T05:38:50;22.23;;;9.50;;
3683;SDS011;1858;48.716;9.648;2023-03-04T05:41:19;27.40;;;11.57;;
3683;SDS011;1858;48.716;9.648;2023-03-04T05:43:48;20.30;;;12.80;;
3683;SDS011;1858;48.716;9.648;2023-03-04T05:46:17;16.77;;;10.73;;
3683;SDS011;1858;48.716;9.648;2023-03-04T05:48:51;17.10;;;12.60;;
3683;SDS011;1858;48.716;9.648;2023-03-04T05:51:21;16.53;;;10.30;;
3683;SDS011;1858;48.716;9.648;2023-03-04T05:53:50;26.90;;;12.87;;
3683;SDS011;1858;48.716;9.648;2023-03-04T05:56:18;37.17;;;9.40;;
3683;SDS011;1858;48.716;9.648;2023-03-04T05:58:47;21.17;;;12.00;;
3683;SDS011;1858;48.716;9.648;2023-03-04T06:01:16;16.80;;;11.70;;
3683;SDS011;1858;48.716;9.648;2023-03-04T06:03:45;17.83;;;10.73;;
3683;SDS011;1858;48.716;9.648;2023-03-04T06:06:14;30.07;;;12.93;;
3683;SDS011;1858;48.716;9.648;2023-03-04T06:08:43;17.20;;;11.47;;
3683;SDS011;1858;48.716;9.648;2023-03-04T06:11:12;17.17;;;9.97;;
3683;SDS011;1858;48.716;9.648;2023-03-04T06:13:41;17.90;;;10.20;;
3683;SDS011;1858;48.716;9.648;2023-03-04T06:16:09;23.43;;;9.30;;
3683;SDS011;1858;48.716;9.648;2023-03-04T06:18:41;24.10;;;12.27;;
3683;SDS011;1858;48.716;9.648;2023-03-04T06:21:10;19.20;;;10.53;;
3683;SDS011;1858;48.716;9.648;2023-03-04T06:23:39;32.75;;;11.95;;
3683;SDS011;1858;48.716;9.648;2023-03-04T06:26:08;24.30;;;14.33;;
3683;SDS011;1858;48.716;9.648;2023-03-04T06:28:39;15.47;;;11.07;;
3683;SDS011;1858;48.716;9.648;2023-03-04T06:31:11;14.50;;;10.73;;
3683;SDS011;1858;48.716;9.648;2023-03-04T06:33:39;19.50;;;9.07;;
3683;SDS011;1858;48.716;9.648;2023-03-04T06:36:08;17.50;;;10.07;;
3683;SDS011;1858;48.716;9.648;2023-03-04T06:38:36;21.80;;;10.03;;
3683;SDS011;1858;48.716;9.648;2023-03-04T06:41:08;17.90;;;9.53;;
3683;SDS011;1858;48.716;9.648;2023-03-04T06:43:38;19.13;;;11.60;;
3683;SDS011;1858;48.716;9.648;2023-03-04T06:46:10;15.90;;;9.00;;
3683;SDS011;1858;48.716;9.648;2023-03-04T06:48:39;22.10;;;12.33;;
3683;SDS011;1858;48.716;9.648;2023-03-04T06:51:09;16.33;;;9.83;;
3683;SDS011;1858;48.716;9.648;2023-03-04T06:53:38;21.40;;;9.37;;
3683;SDS011;1858;48.716;9.648;2023-03-04T06:56:08;18.10;;;10.47;;
3683;SDS011;1858;48.716;9.648;2023-03-04T06:58:41;22.20;;;11.40;;
3683;SDS011;1858;48.716;9.648;2023-03-04T07:01:11;14.33;;;9.20;;
3683;SDS011;1858;48.716;9.648;2023-03-04T07:03:45;17.90;;;10.40;;
3683;SDS011;1858;48.716;9.648;2023-03-04T07:06:16;21.47;;;10.80;;
3683;SDS011;1858;48.716;9.648;2023-03-04T07:08:46;15.60;;;10.00;;
3683;SDS011;1858;48.716;9.648;2023-03-04T07:11:14;16.33;;;9.23;;
3683;SDS011;1858;48.716;9.648;2023-03-04T07:13:44;17.50;;;8.10;;
3683;SDS011;1858;48.716;9.648;2023-03-04T07:16:17;14.93;;;8.17;;
3683;SDS011;1858;48.716;9.648;2023-03-04T07:18:48;19.90;;;10.27;;
3683;SDS011;1858;48.716;9.648;2023-03-04T07:21:20;19.80;;;10.27;;
3683;SDS011;1858;48.716;9.648;2023-03-04T07:23:49;25.73;;;10.03;;
3683;SDS011;1858;48.716;9.648;2023-03-04T07:26:18;28.33;;;12.43;;
3683;SDS011;1858;48.716;9.648;2023-03-04T07:28:47;19.73;;;9.63;;
3683;SDS011;1858;48.716;9.648;2023-03-04T07:31:21;21.07;;;10.40;;
3683;SDS011;1858;48.716;9.648;2023-03-04T07:34:11;19.87;;;10.30;;
3683;SDS011;1858;48.716;9.648;2023-03-04T07:36:40;16.73;;;9.60;;
3683;SDS011;1858;48.716;9.648;2023-03-04T07:39:10;22.07;;;10.43;;
3683;SDS011;1858;48.716;9.648;2023-03-04T07:41:39;16.13;;;9.43;;
3683;SDS011;1858;48.716;9.648;2023-03-04T07:44:09;24.40;;;11.10;;
3683;SDS011;1858;48.716;9.648;2023-03-04T07:46:40;26.17;;;11.40;;
3683;SDS011;1858;48.716;9.648;2023-03-04T07:49:10;19.73;;;11.50;;
3683;SDS011;1858;48.716;9.648;2023-03-04T07:51:40;22.70;;;11.83;;
3683;SDS011;1858;48.716;9.648;2023-03-04T07:54:08;19.83;;;9.83;;
3683;SDS011;1858;48.716;9.648;2023-03-04T07:56:37;12.47;;;8.80;;
3683;SDS011;1858;48.716;9.648;2023-03-04T07:59:06;17.10;;;8.20;;
3683;SDS011;1858;48.716;9.648;2023-03-04T08:01:37;12.57;;;7.13;;
3683;SDS011;1858;48.716;9.648;2023-03-04T08:04:06;20.57;;;10.00;;
3683;SDS011;1858;48.716;9.648;2023-03-04T08:06:35;20.87;;;9.20;;
3683;SDS011;1858;48.716;9.648;2023-03-04T08:09:05;20.40;;;10.47;;
3683;SDS011;1858;48.716;9.648;2023-03-04T08:11:36;16.70;;;9.10;;
3683;SDS011;1858;48.716;9.648;2023-03-04T08:14:06;16.20;;;7.87;;
3683;SDS011;1858;48.716;9.648;2023-03-04T08:16:35;19.13;;;8.13;;
3683;SDS011;1858;48.716;9.648;2023-03-04T08:19:03;17.87;;;10.17;;
3683;SDS011;1858;48.716;9.648;2023-03-04T08:21:33;26.13;;;9.47;;
3683;SDS011;1858;48.716;9.648;2023-03-04T08:24:02;18.40;;;8.27;;
3683;SDS011;1858;48.716;9.648;2023-03-04T08:26:35;23.37;;;9.30;;
3683;SDS011;1858;48.716;9.648;2023-03-04T08:29:08;17.73;;;7.67;;
3683;SDS011;1858;48.716;9.648;2023-03-04T08:31:38;14.93;;;7.80;;
3683;SDS011;1858;48.716;9.648;2023-03-04T08:34:07;20.00;;;8.40;;
3683;SDS011;1858;48.716;9.648;2023-03-04T08:36:36;23.03;;;7.87;;
3683;SDS011;1858;48.716;9.648;2023-03-04T08:39:04;24.13;;;9.53;;
3683;SDS011;1858;48.716;9.648;2023-03-04T08:41:33;15.33;;;8.30;;
3683;SDS011;1858;48.716;9.648;2023-03-04T08:44:02;15.10;;;8.70;;
3683;SDS011;1858;48.716;9.648;2023-03-04T08:46:33;15.23;;;9.17;;
3683;SDS011;1858;48.716;9.648;2023-03-04T08:49:02;17.17;;;9.90;;
3683;SDS011;1858;48.716;9.648;2023-03-04T08:51:31;14.07;;;7.57;;
3683;SDS011;1858;48.716;9.648;2023-03-04T08:54:02;15.73;;;8.47;;
3683;SDS011;1858;48.716;9.648;2023-03-04T08:56:33;15.80;;;7.30;;
3683;SDS011;1858;48.716;9.648;2023-03-04T08:59:02;14.30;;;9.80;;
3683;SDS011;1858;48.716;9.648;2023-03-04T09:01:31;16.07;;;7.63;;
3683;SDS011;1858;48.716;9.648;2023-03-04T09:03:59;18.33;;;8.10;;
3683;SDS011;1858;48.716;9.648;2023-03-04T09:06:28;11.33;;;6.77;;
3683;SDS011;1858;48.716;9.648;2023-03-04T09:08:57;24.37;;;8.83;;
3683;SDS011;1858;48.716;9.648;2023-03-04T09:11:25;18.20;;;5.93;;
3683;SDS011;1858;48.716;9.648;2023-03-04T09:13:54;11.60;;;6.83;;
3683;SDS011;1858;48.716;9.648;2023-03-04T09:16:23;18.03;;;8.33;;
3683;SDS011;1858;48.716;9.648;2023-03-04T09:18:51;13.77;;;7.33;;
3683;SDS011;1858;48.716;9.648;2023-03-04T09:21:20;13.20;;;5.93;;
3683;SDS011;1858;48.716;9.648;2023-03-04T09:23:48;14.03;;;6.80;;
3683;SDS011;1858;48.716;9.648;2023-03-04T09:26:24;13.90;;;5.87;;
3683;SDS011;1858;48.716;9.648;2023-03-04T09:28:55;10.80;;;5.80;;
3683;SDS011;1858;48.716;9.648;2023-03-04T09:31:26;13.77;;;7.00;;
3683;SDS011;1858;48.716;9.648;2023-03-04T09:33:55;19.50;;;5.77;;
3683;SDS011;1858;48.716;9.648;2023-03-04T09:36:25;12.73;;;6.23;;
3683;SDS011;1858;48.716;9.648;2023-03-04T09:38:54;23.87;;;7.40;;
3683;SDS011;1858;48.716;9.648;2023-03-04T09:41:38;16.43;;;7.27;;
3683;SDS011;1858;48.716;9.648;2023-03-04T09:44:42;15.53;;;6.57;;
3683;SDS011;1858;48.716;9.648;2023-03-04T09:46:55;13.27;;;5.90;;
3683;SDS011;1858;48.716;9.648;2023-03-04T09:49:26;10.77;;;5.27;;
3683;SDS011;1858;48.716;9.648;2023-03-04T09:51:58;15.57;;;7.03;;
3683;SDS011;1858;48.716;9.648;2023-03-04T09:57:29;11.83;;;6.80;;
3683;SDS011;1858;48.716;9.648;2023-03-04T10:00:13;21.73;;;6.47;;
3683;SDS011;1858;48.716;9.648;2023-03-04T10:05:33;16.63;;;6.43;;
3683;SDS011;1858;48.716;9.648;2023-03-04T10:11:16;12.83;;;6.20;;
3683;SDS011;1858;48.716;9.648;2023-03-04T10:13:55;10.77;;;6.30;;
3683;SDS011;1858;48.716;9.648;2023-03-04T10:16:26;17.80;;;7.57;;
3683;SDS011;1858;48.716;9.648;2023-03-04T10:19:21;13.13;;;7.90;;
3683;SDS011;1858;48.716;9.648;2023-03-04T10:22:00;12.23;;;6.67;;
3683;SDS011;1858;48.716;9.648;2023-03-04T10:24:30;11.17;;;5.10;;
3683;SDS011;1858;48.716;9.648;2023-03-04T10:27:00;15.67;;;6.90;;
3683;SDS011;1858;48.716;9.648;2023-03-04T10:29:30;17.37;;;6.13;;
3683;SDS011;1858;48.716;9.648;2023-03-04T10:32:00;12.63;;;6.37;;
3683;SDS011;1858;48.716;9.648;2023-03-04T10:34:29;14.00;;;6.20;;
3683;SDS011;1858;48.716;9.648;2023-03-04T10:37:01;10.60;;;6.80;;
3683;SDS011;1858;48.716;9.648;2023-03-04T10:39:33;16.00;;;5.80;;
3683;SDS011;1858;48.716;9.648;2023-03-04T10:42:05;11.63;;;5.10;;
3683;SDS011;1858;48.716;9.648;2023-03-04T10:44:53;11.50;;;6.50;;
3683;SDS011;1858;48.716;9.648;2023-03-04T10:47:25;23.80;;;8.50;;
3683;SDS011;1858;48.716;9.648;2023-03-04T10:49:58;18.80;;;9.17;;
3683;SDS011;1858;48.716;9.648;2023-03-04T10:52:31;16.80;;;6.23;;
3683;SDS011;1858;48.716;9.648;2023-03-04T10:55:05;16.10;;;6.80;;
3683;SDS011;1858;48.716;9.648;2023-03-04T10:57:39;6.17;;;5.07;;
3683;SDS011;1858;48.716;9.648;2023-03-04T11:00:22;9.23;;;4.70;;
3683;SDS011;1858;48.716;9.648;2023-03-04T11:06:09;13.70;;;5.67;;
3683;SDS011;1858;48.716;9.648;2023-03-04T11:08:44;13.30;;;6.93;;
3683;SDS011;1858;48.716;9.648;2023-03-04T11:11:21;13.50;;;7.23;;
3683;SDS011;1858;48.716;9.648;2023-03-04T11:14:03;8.70;;;5.07;;
3683;SDS011;1858;48.716;9.648;2023-03-04T11:16:32;14.93;;;7.57;;
3683;SDS011;1858;48.716;9.648;2023-03-04T11:19:05;19.53;;;7.87;;
3683;SDS011;1858;48.716;9.648;2023-03-04T11:21:36;12.07;;;6.03;;
3683;SDS011;1858;48.716;9.648;2023-03-04T11:24:18;13.30;;;5.00;;
3683;SDS011;1858;48.716;9.648;2023-03-04T11:27:09;15.70;;;5.00;;
3683;SDS011;1858;48.716;9.648;2023-03-04T11:32:39;12.17;;;5.23;;
3683;SDS011;1858;48.716;9.648;2023-03-04T11:35:26;15.03;;;6.33;;
3683;SDS011;1858;48.716;9.648;2023-03-04T11:38:07;12.57;;;5.50;;
3683;SDS011;1858;48.716;9.648;2023-03-04T11:40:42;8.70;;;4.93;;
3683;SDS011;1858;48.716;9.648;2023-03-04T11:43:17;13.67;;;5.40;;
3683;SDS011;1858;48.716;9.648;2023-03-04T11:48:49;8.73;;;4.80;;
3683;SDS011;1858;48.716;9.648;2023-03-04T11:51:40;14.20;;;5.90;;
3683;SDS011;1858;48.716;9.648;2023-03-04T11:57:06;8.87;;;4.97;;
3683;SDS011;1858;48.716;9.648;2023-03-04T11:59:48;17.30;;;6.73;;
3683;SDS011;1858;48.716;9.648;2023-03-04T12:02:39;11.20;;;7.50;;
3683;SDS011;1858;48.716;9.648;2023-03-04T12:10:32;9.13;;;6.00;;
3683;SDS011;1858;48.716;9.648;2023-03-04T12:16:02;8.70;;;4.93;;
3683;SDS011;1858;48.716;9.648;2023-03-04T12:21:38;15.40;;;6.40;;
3683;SDS011;1858;48.716;9.648;2023-03-04T12:24:26;14.10;;;7.20;;
3683;SDS011;1858;48.716;9.648;2023-03-04T12:26:56;11.50;;;5.10;;
3683;SDS011;1858;48.716;9.648;2023-03-04T12:32:16;17.17;;;7.37;;
3683;SDS011;1858;48.716;9.648;2023-03-04T12:37:57;11.50;;;6.30;;
3683;SDS011;1858;48.716;9.648;2023-03-04T12:46:36;16.70;;;7.80;;
3683;SDS011;1858;48.716;9.648;2023-03-04T12:48:34;17.13;;;7.73;;
3683;SDS011;1858;48.716;9.648;2023-03-04T12:51:17;12.90;;;7.17;;
3683;SDS011;1858;48.716;9.648;2023-03-04T12:53:59;16.50;;;6.30;;
3683;SDS011;1858;48.716;9.648;2023-03-04T12:59:13;8.13;;;4.73;;
3683;SDS011;1858;48.716;9.648;2023-03-04T13:02:03;13.77;;;7.73;;
3683;SDS011;1858;48.716;9.648;2023-03-04T13:05:22;18.93;;;9.20;;
3683;SDS011;1858;48.716;9.648;2023-03-04T13:11:02;9.53;;;6.03;;
3683;SDS011;1858;48.716;9.648;2023-03-04T13:16:51;12.03;;;6.23;;
3683;SDS011;1858;48.716;9.648;2023-03-04T13:22:26;14.60;;;6.13;;
3683;SDS011;1858;48.716;9.648;2023-03-04T13:25:41;9.53;;;4.60;;
3683;SDS011;1858;48.716;9.648;2023-03-04T13:28:30;13.37;;;5.93;;
3683;SDS011;1858;48.716;9.648;2023-03-04T13:34:50;13.20;;;7.80;;
3683;SDS011;1858;48.716;9.648;2023-03-04T13:42:52;16.90;;;8.60;;
3683;SDS011;1858;48.716;9.648;2023-03-04T13:51:02;13.50;;;6.70;;
3683;SDS011;1858;48.716;9.648;2023-03-04T13:53:43;16.80;;;6.90;;
3683;SDS011;1858;48.716;9.648;2023-03-04T14:02:09;20.30;;;8.40;;
3683;SDS011;1858;48.716;9.648;2023-03-04T14:04:46;20.83;;;9.37;;
3683;SDS011;1858;48.716;9.648;2023-03-04T14:07:24;16.80;;;8.27;;
3683;SDS011;1858;48.716;9.648;2023-03-04T14:09:56;18.63;;;8.27;;
3683;SDS011;1858;48.716;9.648;2023-03-04T14:12:41;24.20;;;9.03;;
3683;SDS011;1858;48.716;9.648;2023-03-04T14:15:24;16.83;;;8.87;;
3683;SDS011;1858;48.716;9.648;2023-03-04T14:18:01;18.70;;;8.23;;
3683;SDS011;1858;48.716;9.648;2023-03-04T14:20:53;18.00;;;9.33;;
3683;SDS011;1858;48.716;9.648;2023-03-04T14:23:26;24.80;;;10.13;;
3683;SDS011;1858;48.716;9.648;2023-03-04T14:29:24;13.80;;;5.63;;
3683;SDS011;1858;48.716;9.648;2023-03-04T14:31:57;18.93;;;8.00;;
3683;SDS011;1858;48.716;9.648;2023-03-04T14:34:31;16.50;;;6.87;;
3683;SDS011;1858;48.716;9.648;2023-03-04T14:37:26;16.47;;;7.40;;
3683;SDS011;1858;48.716;9.648;2023-03-04T14:39:53;17.37;;;9.10;;
3683;SDS011;1858;48.716;9.648;2023-03-04T14:42:24;31.40;;;11.87;;
3683;SDS011;1858;48.716;9.648;2023-03-04T14:44:54;25.83;;;11.80;;
3683;SDS011;1858;48.716;9.648;2023-03-04T14:47:32;19.17;;;9.23;;
3683;SDS011;1858;48.716;9.648;2023-03-04T14:50:05;21.07;;;9.90;;
3683;SDS011;1858;48.716;9.648;2023-03-04T14:52:46;17.73;;;8.03;;
3683;SDS011;1858;48.716;9.648;2023-03-04T14:58:05;22.73;;;9.73;;
3683;SDS011;1858;48.716;9.648;2023-03-04T15:00:39;18.90;;;7.60;;
3683;SDS011;1858;48.716;9.648;2023-03-04T15:06:07;30.73;;;11.70;;
3683;SDS011;1858;48.716;9.648;2023-03-04T15:08:40;21.80;;;9.80;;
3683;SDS011;1858;48.716;9.648;2023-03-04T15:11:13;19.43;;;9.07;;
3683;SDS011;1858;48.716;9.648;2023-03-04T15:13:53;15.37;;;9.93;;
3683;SDS011;1858;48.716;9.648;2023-03-04T15:16:24;21.67;;;8.17;;
3683;SDS011;1858;48.716;9.648;2023-03-04T15:18:57;21.43;;;9.97;;
3683;SDS011;1858;48.716;9.648;2023-03-04T15:24:07;15.70;;;8.97;;
3683;SDS011;1858;48.716;9.648;2023-03-04T15:26:39;20.70;;;7.30;;
3683;SDS011;1858;48.716;9.648;2023-03-04T15:29:17;18.33;;;7.67;;
3683;SDS011;1858;48.716;9.648;2023-03-04T15:31:46;36.77;;;7.00;;
3683;SDS011;1858;48.716;9.648;2023-03-04T15:34:17;20.00;;;8.67;;
3683;SDS011;1858;48.716;9.648;2023-03-04T15:37:04;20.70;;;8.70;;
3683;SDS011;1858;48.716;9.648;2023-03-04T15:39:51;15.87;;;8.07;;
3683;SDS011;1858;48.716;9.648;2023-03-04T15:42:21;18.10;;;7.73;;
3683;SDS011;1858;48.716;9.648;2023-03-04T15:44:51;18.60;;;7.10;;
3683;SDS011;1858;48.716;9.648;2023-03-04T15:47:20;14.57;;;8.00;;
3683;SDS011;1858;48.716;9.648;2023-03-04T15:50:08;21.27;;;8.93;;
3683;SDS011;1858;48.716;9.648;2023-03-04T15:52:40;16.43;;;7.73;;
3683;SDS011;1858;48.716;9.648;2023-03-04T15:55:31;22.83;;;8.57;;
3683;SDS011;1858;48.716;9.648;2023-03-04T15:57:51;19.40;;;7.17;;
3683;SDS011;1858;48.716;9.648;2023-03-04T16:00:21;14.17;;;7.67;;
3683;SDS011;1858;48.716;9.648;2023-03-04T16:02:50;19.10;;;6.50;;
3683;SDS011;1858;48.716;9.648;2023-03-04T16:05:24;11.73;;;5.50;;
3683;SDS011;1858;48.716;9.648;2023-03-04T16:07:52;21.20;;;8.20;;
3683;SDS011;1858;48.716;9.648;2023-03-04T16:10:26;17.77;;;7.70;;
3683;SDS011;1858;48.716;9.648;2023-03-04T16:12:57;14.93;;;6.63;;
3683;SDS011;1858;48.716;9.648;2023-03-04T16:21:39;42.97;;;7.33;;
3683;SDS011;1858;48.716;9.648;2023-03-04T16:24:16;21.43;;;7.83;;
3683;SDS011;1858;48.716;9.648;2023-03-04T16:26:47;19.97;;;8.47;;
3683;SDS011;1858;48.716;9.648;2023-03-04T16:29:15;15.90;;;8.33;;
3683;SDS011;1858;48.716;9.648;2023-03-04T16:31:45;16.30;;;8.27;;
3683;SDS011;1858;48.716;9.648;2023-03-04T16:34:13;19.80;;;8.80;;
3683;SDS011;1858;48.716;9.648;2023-03-04T16:36:42;28.27;;;9.97;;
3683;SDS011;1858;48.716;9.648;2023-03-04T16:39:16;16.93;;;7.20;;
3683;SDS011;1858;48.716;9.648;2023-03-04T16:41:48;13.70;;;6.63;;
3683;SDS011;1858;48.716;9.648;2023-03-04T16:44:26;8.93;;;6.20;;
3683;SDS011;1858;48.716;9.648;2023-03-04T16:46:54;12.13;;;5.43;;
3683;SDS011;1858;48.716;9.648;2023-03-04T16:49:23;19.00;;;8.50;;
3683;SDS011;1858;48.716;9.648;2023-03-04T16:51:53;11.10;;;5.90;;
3683;SDS011;1858;48.716;9.648;2023-03-04T16:54:22;13.40;;;7.33;;
3683;SDS011;1858;48.716;9.648;2023-03-04T16:56:54;15.17;;;5.43;;
3683;SDS011;1858;48.716;9.648;2023-03-04T16:59:23;12.77;;;6.80;;
3683;SDS011;1858;48.716;9.648;2023-03-04T17:01:51;12.73;;;5.83;;